Time;durP1;ratioP1;P1;durP2;ratioP2;P2;SDS_P1;SDS_P2;PMS_P1;PMS_P2;Temp;Humidity;BMP_temperature;BMP_pressure;BME280_temperature;BME280_humidity;BME280_pressure;Samples;Min_cycle;Max_cycle;Signal;HPM_P1;HPM_P2
2023/04/21 00:01:28;;;;;;;21.98;17.08;;;8.50;99.90;;;;;;5014046;28;20080;-64
2023/04/21 00:03:54;;;;;;;23.77;17.73;;;8.50;99.90;;;;;;5015552;28;20049;-63
2023/04/21 00:06:22;;;;;;;18.48;12.70;;;8.40;99.90;;;;;;5014726;28;20144;-64
2023/04/21 00:08:48;;;;;;;25.95;17.95;;;8.40;99.90;;;;;;5016047;28;20077;-64
2023/04/21 00:11:14;;;;;;;23.08;17.35;;;8.40;99.90;;;;;;5001022;28;20060;-64
2023/04/21 00:13:40;;;;;;;23.83;18.02;;;8.40;99.90;;;;;;5016064;28;20041;-64
2023/04/21 00:16:06;;;;;;;28.02;17.83;;;8.30;99.90;;;;;;5007472;28;20198;-64
2023/04/21 00:18:32;;;;;;;25.67;15.75;;;8.30;99.90;;;;;;5014053;28;20547;-63
2023/04/21 00:20:58;;;;;;;28.15;16.85;;;8.30;99.90;;;;;;5014800;28;20051;-64
2023/04/21 00:23:24;;;;;;;27.73;18.95;;;8.30;99.90;;;;;;5025387;28;20049;-64
2023/04/21 00:25:49;;;;;;;15.05;11.27;;;8.30;99.90;;;;;;5007288;28;20114;-64
2023/04/21 00:28:15;;;;;;;21.73;14.75;;;8.30;99.90;;;;;;5017549;28;20304;-64
2023/04/21 00:30:41;;;;;;;19.58;14.45;;;8.30;99.90;;;;;;5013137;28;20270;-64
2023/04/21 00:33:07;;;;;;;22.92;15.77;;;8.30;99.90;;;;;;5011866;28;20119;-63
2023/04/21 00:35:32;;;;;;;25.60;15.43;;;8.30;99.90;;;;;;5008426;28;20519;-63
2023/04/21 00:37:58;;;;;;;18.90;12.35;;;8.30;99.90;;;;;;5011647;28;20055;-64
2023/04/21 00:40:24;;;;;;;19.42;13.75;;;8.30;99.90;;;;;;5013153;28;20041;-63
2023/04/21 00:42:49;;;;;;;17.13;10.90;;;8.40;99.90;;;;;;5005087;28;20470;-64
2023/04/21 00:45:15;;;;;;;21.00;12.75;;;8.40;99.90;;;;;;5019431;28;20320;-64
2023/04/21 00:47:41;;;;;;;22.38;12.85;;;8.30;99.90;;;;;;5002809;28;20760;-64
2023/04/21 00:50:09;;;;;;;17.83;10.60;;;8.40;99.90;;;;;;5021122;28;20056;-63
2023/04/21 00:52:36;;;;;;;13.15;8.70;;;8.30;99.90;;;;;;5018215;28;20049;-63
2023/04/21 00:55:02;;;;;;;14.60;9.00;;;8.30;99.90;;;;;;4997617;28;20498;-63
2023/04/21 00:57:28;;;;;;;20.02;12.38;;;8.30;99.90;;;;;;5036121;28;20095;-65
2023/04/21 00:59:54;;;;;;;19.90;12.43;;;8.30;99.90;;;;;;5017374;28;20077;-65
2023/04/21 01:02:21;;;;;;;18.33;12.77;;;8.30;99.90;;;;;;5019636;28;20094;-63
2023/04/21 01:04:47;;;;;;;21.27;11.95;;;8.30;99.90;;;;;;5044974;28;20049;-64
2023/04/21 01:07:13;;;;;;;17.80;11.23;;;8.30;99.90;;;;;;5017775;28;20530;-64
2023/04/21 01:09:38;;;;;;;24.10;14.57;;;8.30;99.90;;;;;;5005555;28;20044;-63
2023/04/21 01:12:11;;;;;;;21.25;13.85;;;8.20;99.90;;;;;;5018424;28;20037;-64
2023/04/21 01:14:39;;;;;;;22.45;14.25;;;8.20;99.90;;;;;;5012613;28;20404;-63
2023/04/21 01:17:06;;;;;;;18.55;12.38;;;8.20;99.90;;;;;;5012664;28;20866;-64
2023/04/21 01:19:40;;;;;;;21.33;13.93;;;8.20;99.90;;;;;;4994826;28;20124;-64
2023/04/21 01:22:10;;;;;;;15.88;10.82;;;8.20;99.90;;;;;;5018726;28;20047;-65
2023/04/21 01:24:40;;;;;;;19.73;11.80;;;8.20;99.90;;;;;;5018637;28;20075;-63
2023/04/21 01:27:11;;;;;;;17.30;11.00;;;8.10;99.90;;;;;;5019527;28;20233;-63
2023/04/21 01:29:38;;;;;;;23.10;15.07;;;8.10;99.90;;;;;;5013384;28;20094;-63
2023/04/21 01:32:13;;;;;;;23.98;14.77;;;8.10;99.90;;;;;;5020776;28;20128;-63
2023/04/21 01:34:40;;;;;;;19.75;13.20;;;8.10;99.90;;;;;;5039144;28;21195;-63
2023/04/21 01:37:14;;;;;;;25.73;14.90;;;8.00;99.90;;;;;;5018794;28;20593;-65
2023/04/21 01:39:41;;;;;;;22.90;12.30;;;8.00;99.90;;;;;;5010273;28;20499;-64
2023/04/21 01:42:07;;;;;;;19.10;12.48;;;8.00;99.90;;;;;;5019465;28;20091;-64
2023/04/21 01:44:34;;;;;;;22.85;13.90;;;8.00;99.90;;;;;;5032681;28;20052;-64
2023/04/21 01:46:59;;;;;;;21.05;15.00;;;8.00;99.90;;;;;;5018568;28;20038;-65
2023/04/21 01:49:25;;;;;;;20.40;13.02;;;8.00;99.90;;;;;;5016608;28;20096;-64
2023/04/21 01:51:51;;;;;;;17.17;11.25;;;8.00;99.90;;;;;;5018558;28;20179;-63
2023/04/21 01:54:17;;;;;;;22.50;13.95;;;7.90;99.90;;;;;;5002718;28;20048;-64
2023/04/21 01:56:43;;;;;;;18.85;11.98;;;8.00;99.90;;;;;;5016551;28;20519;-62
2023/04/21 01:59:08;;;;;;;23.10;15.05;;;7.90;99.90;;;;;;5018113;28;20108;-66
2023/04/21 02:01:35;;;;;;;18.00;13.48;;;7.90;99.90;;;;;;5016125;28;20037;-64
2023/04/21 02:04:03;;;;;;;17.95;12.55;;;7.90;99.90;;;;;;5016103;28;20663;-64
2023/04/21 02:06:32;;;;;;;23.23;14.75;;;8.00;99.90;;;;;;4996974;28;20042;-64
2023/04/21 02:08:58;;;;;;;27.83;20.13;;;8.00;99.90;;;;;;5028739;28;20107;-63
2023/04/21 02:11:24;;;;;;;22.05;16.27;;;7.90;99.90;;;;;;5045423;28;20212;-64
2023/04/21 02:13:54;;;;;;;17.25;13.27;;;7.90;99.90;;;;;;5011673;28;20273;-64
2023/04/21 02:16:24;;;;;;;30.77;21.42;;;8.00;99.90;;;;;;5034923;28;20209;-64
2023/04/21 02:18:51;;;;;;;31.20;20.60;;;7.90;99.90;;;;;;5033782;28;20049;-64
2023/04/21 02:21:16;;;;;;;30.38;19.88;;;7.80;99.90;;;;;;5011853;28;20487;-62
2023/04/21 02:23:42;;;;;;;28.67;20.02;;;7.80;99.90;;;;;;5011998;28;20044;-64
2023/04/21 02:26:08;;;;;;;30.98;21.63;;;7.80;99.90;;;;;;5012120;28;20518;-65
2023/04/21 02:28:34;;;;;;;37.35;22.40;;;7.80;99.90;;;;;;5016869;28;20045;-64
2023/04/21 02:30:59;;;;;;;22.75;15.93;;;7.70;99.90;;;;;;5018848;28;20048;-63
2023/04/21 02:33:25;;;;;;;29.48;18.90;;;7.80;99.90;;;;;;5028383;28;20065;-64
2023/04/21 02:35:51;;;;;;;28.60;19.55;;;7.70;99.90;;;;;;5016451;28;20120;-65
2023/04/21 02:38:16;;;;;;;25.08;16.67;;;7.70;99.90;;;;;;5018491;28;20367;-65
2023/04/21 02:40:42;;;;;;;23.40;18.17;;;7.70;99.90;;;;;;5011030;28;20076;-65
2023/04/21 02:43:08;;;;;;;26.35;16.50;;;7.70;99.90;;;;;;5014787;28;20451;-64
2023/04/21 02:45:35;;;;;;;25.42;16.20;;;7.60;99.90;;;;;;5001829;28;20254;-63
2023/04/21 02:48:01;;;;;;;25.92;18.85;;;7.70;99.90;;;;;;5016121;28;20045;-63
2023/04/21 02:50:26;;;;;;;25.77;17.13;;;7.70;99.90;;;;;;5016025;28;20045;-64
2023/04/21 02:52:52;;;;;;;26.98;18.60;;;7.70;99.90;;;;;;4999038;28;20049;-64
2023/04/21 02:55:18;;;;;;;24.88;18.35;;;7.60;99.90;;;;;;5015618;28;20073;-62
2023/04/21 02:57:43;;;;;;;29.23;18.05;;;7.60;99.90;;;;;;5010439;28;20402;-63
2023/04/21 03:00:11;;;;;;;23.08;15.48;;;7.50;99.90;;;;;;5015879;28;20049;-63
2023/04/21 03:02:37;;;;;;;26.30;17.42;;;7.50;99.90;;;;;;5028806;28;20069;-63
2023/04/21 03:05:03;;;;;;;25.25;17.38;;;7.50;99.90;;;;;;5018958;28;20464;-63
2023/04/21 03:07:29;;;;;;;20.05;12.65;;;7.50;99.90;;;;;;5020342;28;20040;-64
2023/04/21 03:09:54;;;;;;;25.50;17.33;;;7.50;99.90;;;;;;5011599;28;20041;-62
2023/04/21 03:12:20;;;;;;;27.75;16.98;;;7.50;99.90;;;;;;5016561;28;20045;-64
2023/04/21 03:14:46;;;;;;;23.63;17.08;;;7.50;99.90;;;;;;4998733;28;20777;-63
2023/04/21 03:17:12;;;;;;;26.75;17.65;;;7.50;99.90;;;;;;5017596;28;20053;-62
2023/04/21 03:19:37;;;;;;;25.80;17.50;;;7.50;99.90;;;;;;5016237;28;20255;-63
2023/04/21 03:22:03;;;;;;;22.88;17.95;;;7.50;99.90;;;;;;5018755;28;20091;-64
2023/04/21 03:24:29;;;;;;;24.23;15.98;;;7.50;99.90;;;;;;5043172;28;20042;-64
2023/04/21 03:26:55;;;;;;;22.08;15.00;;;7.60;99.90;;;;;;5018788;28;20711;-62
2023/04/21 03:29:22;;;;;;;23.48;16.10;;;7.50;99.90;;;;;;5018389;28;20434;-63
2023/04/21 03:31:47;;;;;;;22.63;16.25;;;7.50;99.90;;;;;;5000281;28;20127;-62
2023/04/21 03:34:13;;;;;;;22.75;15.05;;;7.50;99.90;;;;;;5017142;28;20117;-64
2023/04/21 03:36:39;;;;;;;22.27;16.05;;;7.40;99.90;;;;;;5020222;28;20040;-61
2023/04/21 03:39:06;;;;;;;26.13;17.02;;;7.50;99.90;;;;;;5008838;28;20061;-62
2023/04/21 03:41:35;;;;;;;25.65;17.05;;;7.50;99.90;;;;;;5000314;28;20506;-62
2023/04/21 03:44:00;;;;;;;25.38;16.77;;;7.40;99.90;;;;;;5016289;28;20129;-62
2023/04/21 03:46:26;;;;;;;26.67;16.90;;;7.40;99.90;;;;;;5005054;28;20132;-63
2023/04/21 03:48:52;;;;;;;26.92;17.38;;;7.40;99.90;;;;;;5025253;28;20041;-63
2023/04/21 03:51:17;;;;;;;21.38;15.98;;;7.30;99.90;;;;;;5009373;28;20072;-63
2023/04/21 03:53:43;;;;;;;24.70;16.23;;;7.30;99.90;;;;;;5017807;28;20056;-64
2023/04/21 03:56:09;;;;;;;24.48;17.08;;;7.30;99.90;;;;;;5002551;28;20098;-62
2023/04/21 03:58:35;;;;;;;16.17;10.85;;;7.20;99.90;;;;;;5008000;28;20037;-63
2023/04/21 04:01:03;;;;;;;24.70;14.90;;;7.30;99.90;;;;;;5014870;28;20514;-62
2023/04/21 04:03:29;;;;;;;23.98;14.57;;;7.40;99.90;;;;;;5015158;28;20083;-63
2023/04/21 04:05:55;;;;;;;23.13;12.95;;;7.40;99.90;;;;;;5007478;28;20037;-63
2023/04/21 04:08:20;;;;;;;24.63;15.00;;;7.40;99.90;;;;;;5016880;28;20251;-63
2023/04/21 04:10:46;;;;;;;21.90;14.07;;;7.40;99.90;;;;;;5010108;28;20098;-63
2023/04/21 04:13:12;;;;;;;21.48;13.32;;;7.50;99.90;;;;;;5015816;28;20103;-63
2023/04/21 04:15:37;;;;;;;18.35;13.65;;;7.50;99.90;;;;;;5015236;28;20252;-63
2023/04/21 04:18:03;;;;;;;18.77;11.82;;;7.50;99.90;;;;;;5014645;28;20072;-62
2023/04/21 04:20:29;;;;;;;21.02;12.90;;;7.60;99.90;;;;;;5014675;28;20041;-64
2023/04/21 04:22:55;;;;;;;22.60;14.13;;;7.60;99.90;;;;;;5016067;28;20044;-62
2023/04/21 04:25:20;;;;;;;20.13;14.00;;;7.60;99.90;;;;;;5008413;28;20281;-62
2023/04/21 04:27:48;;;;;;;22.63;14.52;;;7.50;99.90;;;;;;5006190;28;20360;-63
2023/04/21 04:30:14;;;;;;;25.30;14.88;;;7.50;99.90;;;;;;5015245;28;20049;-63
2023/04/21 04:32:40;;;;;;;17.17;12.80;;;7.50;99.90;;;;;;5001403;28;20053;-63
2023/04/21 04:35:06;;;;;;;20.88;13.23;;;7.50;99.90;;;;;;5014844;28;20063;-63
2023/04/21 04:37:34;;;;;;;23.25;14.38;;;7.40;99.90;;;;;;5013563;28;20475;-64
2023/04/21 04:40:00;;;;;;;25.58;14.18;;;7.50;99.90;;;;;;5008657;28;20045;-64
2023/04/21 04:42:25;;;;;;;20.67;11.77;;;7.50;99.90;;;;;;5014408;28;20053;-62
2023/04/21 04:44:54;;;;;;;22.00;13.55;;;7.50;99.90;;;;;;5014494;28;20045;-64
2023/04/21 04:47:20;;;;;;;18.48;12.55;;;7.50;99.90;;;;;;5015685;28;20044;-62
2023/04/21 04:49:46;;;;;;;19.98;12.60;;;7.60;99.90;;;;;;5014720;28;20416;-62
2023/04/21 04:52:12;;;;;;;22.17;13.93;;;7.50;99.90;;;;;;5014567;28;20045;-63
2023/04/21 04:54:37;;;;;;;23.77;14.73;;;7.40;99.90;;;;;;5015233;28;20036;-63
2023/04/21 04:57:03;;;;;;;21.33;14.65;;;7.40;99.90;;;;;;5014504;28;20041;-63
2023/04/21 04:59:29;;;;;;;22.52;15.82;;;7.50;99.90;;;;;;5042591;28;20041;-63
2023/04/21 05:01:56;;;;;;;20.98;15.55;;;7.40;99.90;;;;;;5009227;28;20049;-62
2023/04/21 05:04:22;;;;;;;22.17;15.90;;;7.50;99.90;;;;;;5008731;28;20048;-63
2023/04/21 05:06:47;;;;;;;25.85;15.68;;;7.40;99.90;;;;;;5001179;28;20048;-62
2023/04/21 05:09:13;;;;;;;20.85;12.93;;;7.50;99.90;;;;;;5014498;28;20041;-63
2023/04/21 05:11:39;;;;;;;22.35;15.35;;;7.50;99.90;;;;;;5019167;28;20617;-63
2023/04/21 05:14:05;;;;;;;22.75;15.18;;;7.50;99.90;;;;;;5013224;28;20403;-63
2023/04/21 05:16:30;;;;;;;26.40;15.02;;;7.50;99.90;;;;;;5018638;28;21293;-63
2023/04/21 05:19:00;;;;;;;23.05;15.38;;;7.60;99.90;;;;;;5018681;28;20498;-63
2023/04/21 05:21:27;;;;;;;22.52;15.77;;;7.50;99.90;;;;;;5022670;28;20118;-62
2023/04/21 05:23:56;;;;;;;22.15;13.82;;;7.50;99.90;;;;;;5015072;28;20310;-62
2023/04/21 05:26:23;;;;;;;17.13;12.88;;;7.70;99.90;;;;;;5009215;28;20029;-63
2023/04/21 05:28:49;;;;;;;20.42;13.25;;;7.80;99.90;;;;;;5009850;28;20520;-64
2023/04/21 05:31:15;;;;;;;21.55;13.70;;;7.90;99.90;;;;;;5019205;28;20359;-62
2023/04/21 05:33:40;;;;;;;20.55;14.93;;;8.10;99.90;;;;;;5011658;28;20057;-63
2023/04/21 05:36:08;;;;;;;20.02;12.63;;;8.20;99.90;;;;;;4999111;28;20072;-63
2023/04/21 05:38:34;;;;;;;19.95;13.20;;;8.30;99.90;;;;;;5016469;28;20376;-63
2023/04/21 05:41:00;;;;;;;20.10;12.73;;;8.40;99.90;;;;;;5018969;28;20150;-64
2023/04/21 05:43:26;;;;;;;16.45;11.60;;;8.50;99.90;;;;;;5023041;28;20698;-63
2023/04/21 05:45:51;;;;;;;20.13;11.80;;;8.60;99.90;;;;;;5017503;28;20048;-62
2023/04/21 05:48:17;;;;;;;18.00;11.70;;;8.80;99.90;;;;;;5018253;28;21027;-64
2023/04/21 05:50:43;;;;;;;18.23;11.55;;;9.00;99.90;;;;;;5018344;28;20072;-63
2023/04/21 05:53:09;;;;;;;18.65;11.25;;;9.10;99.90;;;;;;5016472;28;20037;-63
2023/04/21 05:55:35;;;;;;;19.00;11.27;;;9.20;75.90;;;;;;5021400;28;20033;-63
2023/04/21 05:58:01;;;;;;;15.82;10.43;;;9.40;38.30;;;;;;5018449;28;20037;-64
2023/04/21 06:00:27;;;;;;;18.55;11.07;;;9.40;1.00;;;;;;5019675;28;20106;-63
2023/04/21 06:02:53;;;;;;;16.80;10.63;;;9.60;1.00;;;;;;5017106;28;20533;-63
2023/04/21 06:05:19;;;;;;;18.00;11.15;;;9.60;1.00;;;;;;5018711;28;20037;-63
2023/04/21 06:07:44;;;;;;;20.10;11.70;;;9.70;1.00;;;;;;5022607;28;20038;-63
2023/04/21 06:10:11;;;;;;;16.27;9.98;;;9.80;1.00;;;;;;5017412;28;20760;-63
2023/04/21 06:12:37;;;;;;;14.23;10.13;;;10.00;1.00;;;;;;5011450;28;20052;-63
2023/04/21 06:15:03;;;;;;;20.15;10.32;;;10.20;1.00;;;;;;5016312;28;20451;-62
2023/04/21 06:17:29;;;;;;;15.57;9.75;;;10.30;1.00;;;;;;5004086;28;20045;-63
2023/04/21 06:19:55;;;;;;;14.57;9.38;;;10.40;1.00;;;;;;5033901;28;20056;-62
2023/04/21 06:22:24;;;;;;;16.08;9.15;;;10.50;1.00;;;;;;5018431;28;20733;-62
2023/04/21 06:24:50;;;;;;;15.30;9.10;;;10.50;99.90;;;;;;5026747;28;20052;-64
2023/04/21 06:27:16;;;;;;;15.77;9.20;;;10.60;99.90;;;;;;5019513;28;20704;-63
2023/04/21 06:29:42;;;;;;;19.23;9.75;;;10.70;99.90;;;;;;5006869;28;20036;-62
2023/04/21 06:32:09;;;;;;;15.75;9.43;;;10.80;99.90;;;;;;5016737;28;20084;-63
2023/04/21 06:34:35;;;;;;;15.95;8.45;;;11.00;99.90;;;;;;5015672;28;20233;-63
2023/04/21 06:37:01;;;;;;;18.05;9.07;;;11.20;99.90;;;;;;5014848;28;20310;-64
2023/04/21 06:39:26;;;;;;;17.13;9.00;;;11.30;99.90;;;;;;5017254;28;20514;-62
2023/04/21 06:41:53;;;;;;;13.75;9.15;;;11.30;99.90;;;;;;5016885;28;20129;-62
2023/04/21 06:44:19;;;;;;;16.38;9.00;;;11.40;99.90;;;;;;5009211;28;20347;-64
2023/04/21 06:46:46;;;;;;;11.75;7.85;;;11.50;99.90;;;;;;5018679;28;20040;-63
2023/04/21 06:49:12;;;;;;;15.95;8.35;;;11.60;99.90;;;;;;5015043;28;20069;-63
2023/04/21 06:51:38;;;;;;;15.52;8.52;;;11.70;99.90;;;;;;5014895;28;20192;-63
2023/04/21 06:54:04;;;;;;;13.88;8.07;;;11.90;99.90;;;;;;5012983;28;20651;-63
2023/04/21 06:56:30;;;;;;;13.68;7.90;;;12.10;99.90;;;;;;5018565;28;20562;-64
2023/04/21 06:58:56;;;;;;;15.30;7.88;;;12.20;99.90;;;;;;5016795;28;20047;-64
2023/04/21 07:01:25;;;;;;;8.70;6.45;;;12.40;99.90;;;;;;5031469;28;20533;-64
2023/04/21 07:03:50;;;;;;;12.65;7.07;;;12.50;99.90;;;;;;5015259;28;20036;-64
2023/04/21 07:06:16;;;;;;;15.68;7.85;;;12.60;99.90;;;;;;4995761;28;20396;-64
2023/04/21 07:08:42;;;;;;;12.00;6.25;;;12.70;99.90;;;;;;4996300;28;20064;-64
2023/04/21 07:11:08;;;;;;;10.43;5.05;;;12.90;99.90;;;;;;4986061;28;20526;-64
2023/04/21 07:13:33;;;;;;;10.38;4.93;;;13.00;99.90;;;;;;5017689;28;20053;-64
2023/04/21 07:15:59;;;;;;;10.50;5.95;;;13.00;99.90;;;;;;5026449;28;20056;-64
2023/04/21 07:18:25;;;;;;;12.15;6.20;;;13.10;99.90;;;;;;5009490;28;20128;-63
2023/04/21 07:20:51;;;;;;;18.20;8.13;;;13.20;99.90;;;;;;5035060;28;20492;-62
2023/04/21 07:23:17;;;;;;;9.75;5.68;;;13.30;99.90;;;;;;5006631;28;20107;-64
2023/04/21 07:25:43;;;;;;;8.13;5.40;;;13.40;99.90;;;;;;5016550;28;20059;-62
2023/04/21 07:28:09;;;;;;;12.65;5.82;;;13.60;99.90;;;;;;5016286;28;20653;-63
2023/04/21 07:30:36;;;;;;;11.68;5.75;;;13.60;99.90;;;;;;5027181;28;20053;-63
2023/04/21 07:33:02;;;;;;;11.07;5.95;;;13.70;99.90;;;;;;5045620;28;20056;-64
2023/04/21 07:35:28;;;;;;;12.55;5.82;;;13.70;99.90;;;;;;5007560;28;20045;-62
2023/04/21 07:37:53;;;;;;;14.10;5.05;;;13.90;99.90;;;;;;5008923;28;20051;-63
2023/04/21 07:40:19;;;;;;;8.88;5.72;;;14.00;99.90;;;;;;5014557;28;20042;-64
2023/04/21 07:42:45;;;;;;;11.45;5.78;;;14.00;99.90;;;;;;5020227;28;20671;-63
2023/04/21 07:45:11;;;;;;;13.70;6.20;;;14.20;99.90;;;;;;5035360;28;20072;-63
2023/04/21 07:47:37;;;;;;;11.30;6.00;;;14.20;99.90;;;;;;5014183;28;20045;-63
2023/04/21 07:50:03;;;;;;;9.10;5.30;;;14.30;99.90;;;;;;5002075;28;20306;-63
2023/04/21 07:52:29;;;;;;;12.95;6.32;;;14.50;99.90;;;;;;5015155;28;20631;-63
2023/04/21 07:54:55;;;;;;;9.40;5.60;;;14.50;99.90;;;;;;5018650;28;20041;-63
2023/04/21 07:57:20;;;;;;;6.43;3.80;;;14.50;99.90;;;;;;5023519;28;20037;-64
2023/04/21 07:59:46;;;;;;;14.82;6.07;;;14.70;99.90;;;;;;4995234;28;20076;-63
2023/04/21 08:02:12;;;;;;;13.90;6.45;;;14.70;99.90;;;;;;5004276;28;20191;-63
2023/04/21 08:04:38;;;;;;;12.55;6.05;;;14.80;99.90;;;;;;5013055;28;20048;-63
2023/04/21 08:07:03;;;;;;;13.85;5.22;;;14.90;96.40;;;;;;4997042;28;20496;-64
2023/04/21 08:09:29;;;;;;;14.82;6.47;;;15.00;99.90;;;;;;5013037;28;20539;-64
2023/04/21 08:11:56;;;;;;;12.68;5.97;;;15.20;99.90;;;;;;5015352;28;20532;-64
2023/04/21 08:14:22;;;;;;;10.60;5.97;;;15.40;99.90;;;;;;5010358;28;20037;-63
2023/04/21 08:16:48;;;;;;;14.30;6.32;;;15.60;99.90;;;;;;5015043;28;20051;-63
2023/04/21 08:19:14;;;;;;;14.35;5.88;;;15.60;92.90;;;;;;5008831;28;20250;-63
2023/04/21 08:21:39;;;;;;;11.43;6.03;;;15.80;99.90;;;;;;4993946;28;20048;-63
2023/04/21 08:24:05;;;;;;;15.88;6.43;;;16.10;99.90;;;;;;5002933;28;20069;-63
2023/04/21 08:26:32;;;;;;;13.38;6.25;;;16.10;8.00;;;;;;5003604;28;20282;-64
2023/04/21 08:28:59;;;;;;;12.65;5.53;;;16.10;60.40;;;;;;5016539;28;20842;-63
2023/04/21 08:31:25;;;;;;;12.02;6.25;;;16.10;1.00;;;;;;5030877;28;20094;-65
2023/04/21 08:33:52;;;;;;;12.18;5.97;;;16.30;13.70;;;;;;5024254;28;20069;-63
2023/04/21 08:36:19;;;;;;;12.57;5.68;;;16.40;1.00;;;;;;5031535;28;20052;-63
2023/04/21 08:38:45;;;;;;;12.55;5.65;;;16.10;1.00;;;;;;5014620;28;20233;-62
2023/04/21 08:41:11;;;;;;;9.60;5.30;;;16.30;1.00;;;;;;5010032;28;20064;-63
2023/04/21 08:43:37;;;;;;;8.90;4.93;;;16.60;1.00;;;;;;5013046;28;20048;-65
2023/04/21 08:46:07;;;;;;;14.95;6.22;;;16.60;1.00;;;;;;5011992;28;20038;-63
2023/04/21 08:48:37;;;;;;;12.63;5.07;;;16.80;1.00;;;;;;5013467;28;20067;-64
2023/04/21 08:51:10;;;;;;;11.48;5.13;;;16.50;99.90;;;;;;5009446;28;20045;-64
2023/04/21 08:53:36;;;;;;;11.73;5.03;;;16.60;1.00;;;;;;5026311;28;20049;-64
2023/04/21 08:56:03;;;;;;;8.48;4.82;;;16.50;99.90;;;;;;5013126;28;20110;-64
2023/04/21 08:58:29;;;;;;;10.65;5.15;;;16.50;99.90;;;;;;4998404;28;20092;-63
2023/04/21 09:00:54;;;;;;;12.05;5.60;;;16.40;1.00;;;;;;4996057;28;20488;-63
2023/04/21 09:03:22;;;;;;;11.18;5.68;;;16.60;1.00;;;;;;5017033;28;20518;-64
2023/04/21 09:05:57;;;;;;;14.52;6.68;;;17.00;99.90;;;;;;5017582;28;20442;-64
2023/04/21 09:08:25;;;;;;;15.50;4.97;;;17.30;99.90;;;;;;5036100;28;20049;-64
2023/04/21 09:10:51;;;;;;;12.13;4.97;;;17.60;99.90;;;;;;5018094;28;20130;-63
2023/04/21 09:13:18;;;;;;;11.70;5.10;;;17.80;99.90;;;;;;5030213;28;20218;-63
2023/04/21 09:15:47;;;;;;;11.10;5.32;;;17.50;99.90;;;;;;5018175;28;20044;-63
2023/04/21 09:18:18;;;;;;;15.10;5.28;;;17.80;99.90;;;;;;5034687;28;20043;-64
2023/04/21 09:20:45;;;;;;;12.25;5.63;;;17.60;99.90;;;;;;5007492;28;20574;-64
2023/04/21 09:23:11;;;;;;;15.50;6.03;;;17.70;99.90;;;;;;5035734;28;20042;-63
2023/04/21 09:25:39;;;;;;;13.55;5.10;;;18.00;99.90;;;;;;5018226;28;20094;-64
2023/04/21 09:28:13;;;;;;;11.00;5.40;;;18.10;99.90;;;;;;5023031;28;20068;-63
2023/04/21 09:30:42;;;;;;;11.57;5.45;;;18.20;99.90;;;;;;4999554;28;20052;-64
2023/04/21 09:33:15;;;;;;;11.80;5.53;;;18.50;99.90;;;;;;5015767;28;20068;-63
2023/04/21 09:35:41;;;;;;;10.02;4.88;;;18.80;99.90;;;;;;5013749;28;20506;-63
2023/04/21 09:38:11;;;;;;;10.63;4.97;;;18.90;99.90;;;;;;5030893;28;20049;-64
2023/04/21 09:40:37;;;;;;;9.75;3.95;;;18.80;99.90;;;;;;5005554;28;20503;-64
2023/04/21 09:43:03;;;;;;;12.45;4.90;;;18.70;99.90;;;;;;5018690;28;20037;-65
2023/04/21 09:45:29;;;;;;;9.95;4.10;;;18.60;99.90;;;;;;5014824;28;20639;-64
2023/04/21 09:47:59;;;;;;;12.13;5.15;;;18.60;99.90;;;;;;5016169;28;20048;-64
2023/04/21 09:50:25;;;;;;;15.30;5.60;;;18.60;99.90;;;;;;5013498;28;20128;-64
2023/04/21 09:52:52;;;;;;;16.38;4.75;;;18.60;99.90;;;;;;5014413;28;20311;-63
2023/04/21 09:55:23;;;;;;;9.18;4.07;;;18.60;99.90;;;;;;5015756;28;20051;-63
2023/04/21 09:57:51;;;;;;;11.82;4.25;;;18.60;99.90;;;;;;5020789;28;20044;-64
2023/04/21 10:00:20;;;;;;;11.48;4.40;;;18.50;99.90;;;;;;5015823;28;20144;-64
2023/04/21 10:02:50;;;;;;;12.90;4.95;;;18.60;99.90;;;;;;5025562;28;20322;-63
2023/04/21 10:05:16;;;;;;;10.60;4.47;;;18.80;99.90;;;;;;5015925;28;20411;-64
2023/04/21 10:07:44;;;;;;;11.93;5.13;;;19.10;99.90;;;;;;5010024;28;20095;-64
2023/04/21 10:10:26;;;;;;;10.43;4.60;;;19.20;99.90;;;;;;5023290;28;20041;-64
2023/04/21 10:12:53;;;;;;;12.27;4.28;;;19.20;99.90;;;;;;5034587;28;20079;-64
2023/04/21 10:15:40;;;;;;;7.88;2.95;;;19.40;99.90;;;;;;5023034;28;20041;-63
2023/04/21 10:18:20;;;;;;;9.50;4.10;;;19.60;99.90;;;;;;5018025;28;20049;-65
2023/04/21 10:20:50;;;;;;;11.85;4.53;;;19.30;99.90;;;;;;5019434;28;20053;-64
2023/04/21 10:23:27;;;;;;;10.55;3.97;;;19.30;99.90;;;;;;5020671;28;20074;-62
2023/04/21 10:25:53;;;;;;;10.02;4.57;;;19.30;99.90;;;;;;5020752;28;20037;-64
2023/04/21 10:28:19;;;;;;;10.35;4.28;;;19.20;99.90;;;;;;5020240;28;20100;-63
2023/04/21 10:30:45;;;;;;;8.90;4.40;;;19.50;99.90;;;;;;5015482;28;20124;-64
2023/04/21 10:33:11;;;;;;;9.18;4.25;;;19.50;99.90;;;;;;5015794;28;20505;-63
2023/04/21 10:36:00;;;;;;;13.57;4.93;;;19.50;99.90;;;;;;5017795;28;20569;-62
2023/04/21 10:38:43;;;;;;;12.35;4.50;;;19.80;99.90;;;;;;5015807;28;20045;-62
2023/04/21 10:41:32;;;;;;;9.88;4.65;;;20.10;99.90;;;;;;5017792;28;20045;-63
2023/04/21 10:43:59;;;;;;;14.20;5.18;;;20.20;99.90;;;;;;5016986;28;20045;-64
2023/04/21 10:46:39;;;;;;;12.88;4.97;;;20.60;99.90;;;;;;5018224;28;20077;-63
2023/04/21 10:49:30;;;;;;;14.45;4.78;;;20.50;99.90;;;;;;5026050;28;20494;-62
2023/04/21 10:51:58;;;;;;;11.00;4.07;;;20.50;99.90;;;;;;5037469;28;20088;-64
2023/04/21 10:54:25;;;;;;;7.82;3.97;;;20.60;99.90;;;;;;5014752;28;20049;-64
2023/04/21 10:56:53;;;;;;;13.27;5.05;;;20.80;99.90;;;;;;5017246;28;20284;-63
2023/04/21 10:59:20;;;;;;;9.43;4.65;;;20.90;99.90;;;;;;5020281;28;20725;-63
2023/04/21 11:01:46;;;;;;;9.95;4.68;;;21.10;99.90;;;;;;5018192;28;20607;-64
2023/04/21 11:04:16;;;;;;;7.85;4.50;;;21.10;99.90;;;;;;5029206;28;20049;-63
2023/04/21 11:06:42;;;;;;;5.28;3.55;;;21.30;99.90;;;;;;5003057;28;20040;-64
2023/04/21 11:09:08;;;;;;;7.00;3.97;;;21.10;99.90;;;;;;5020883;28;20041;-63
2023/04/21 11:11:35;;;;;;;9.80;4.22;;;20.80;99.90;;;;;;5012311;28;20061;-62
2023/04/21 11:14:04;;;;;;;7.05;3.80;;;20.60;99.90;;;;;;5035705;28;20045;-63
2023/04/21 11:16:30;;;;;;;7.97;3.83;;;20.70;99.90;;;;;;5015711;28;20551;-64
2023/04/21 11:18:56;;;;;;;9.40;4.45;;;20.80;99.90;;;;;;5002127;28;20037;-63
2023/04/21 11:21:23;;;;;;;11.02;4.38;;;20.90;99.90;;;;;;5016325;28;20442;-63
2023/04/21 11:23:51;;;;;;;8.85;4.43;;;21.00;99.90;;;;;;5034590;28;20049;-64
2023/04/21 11:26:18;;;;;;;11.05;3.88;;;21.20;99.90;;;;;;5032611;28;20045;-65
2023/04/21 11:28:48;;;;;;;9.07;3.90;;;21.30;99.90;;;;;;5011340;28;20136;-63
2023/04/21 11:31:14;;;;;;;8.30;3.80;;;21.30;99.90;;;;;;5015369;28;20049;-63
2023/04/21 11:33:40;;;;;;;9.57;3.72;;;21.30;99.90;;;;;;5032823;28;20115;-63
2023/04/21 11:36:06;;;;;;;10.88;4.78;;;21.40;99.90;;;;;;5034001;28;20103;-64
2023/04/21 11:38:40;;;;;;;9.15;4.15;;;20.80;99.90;;;;;;5032235;28;20079;-64
2023/04/21 11:41:08;;;;;;;8.63;3.90;;;20.80;99.90;;;;;;5032371;28;20584;-65
2023/04/21 11:43:35;;;;;;;7.95;3.78;;;21.20;99.90;;;;;;5033609;28;20045;-65
2023/04/21 11:46:32;;;;;;;12.07;3.72;;;21.30;99.90;;;;;;5016283;28;20840;-64
2023/04/21 11:48:59;;;;;;;9.95;3.90;;;21.60;99.90;;;;;;5024933;28;20055;-63
2023/04/21 11:51:26;;;;;;;9.57;3.65;;;21.60;99.90;;;;;;5032770;28;20056;-63
2023/04/21 11:53:52;;;;;;;4.88;2.92;;;21.90;99.90;;;;;;5034208;28;20045;-64
2023/04/21 11:56:20;;;;;;;8.07;3.50;;;21.90;99.90;;;;;;5032358;28;20923;-62
2023/04/21 11:58:51;;;;;;;8.07;3.25;;;22.00;99.90;;;;;;5030397;28;20044;-63
2023/04/21 12:01:18;;;;;;;9.25;3.53;;;21.90;99.90;;;;;;5013690;28;20079;-62
2023/04/21 12:03:54;;;;;;;8.93;3.70;;;21.60;99.90;;;;;;5014483;28;20680;-63
2023/04/21 12:06:27;;;;;;;7.43;3.38;;;21.60;99.90;;;;;;5013475;28;20045;-63
2023/04/21 12:09:00;;;;;;;11.82;4.00;;;21.70;99.90;;;;;;5015523;28;20040;-64
2023/04/21 12:11:28;;;;;;;9.55;3.35;;;21.80;99.90;;;;;;5034603;28;20045;-64
2023/04/21 12:13:57;;;;;;;6.88;3.55;;;21.90;99.90;;;;;;5032904;28;20069;-64
2023/04/21 12:16:26;;;;;;;9.32;3.28;;;21.60;99.90;;;;;;5033766;28;20052;-63
2023/04/21 12:18:52;;;;;;;8.13;3.35;;;21.30;99.90;;;;;;5032350;28;20048;-63
2023/04/21 12:21:17;;;;;;;8.80;3.20;;;21.70;99.90;;;;;;5032375;28;20095;-62
2023/04/21 12:23:43;;;;;;;8.82;3.20;;;21.80;99.90;;;;;;5033749;28;20049;-64
2023/04/21 12:26:10;;;;;;;6.78;2.85;;;21.50;99.90;;;;;;5046064;28;20073;-63
2023/04/21 12:28:37;;;;;;;7.88;2.92;;;21.70;99.90;;;;;;4996619;28;20072;-63
2023/04/21 12:31:03;;;;;;;7.32;3.17;;;22.10;99.90;;;;;;5012983;28;20037;-64
2023/04/21 12:33:28;;;;;;;6.95;3.00;;;22.20;99.90;;;;;;5012301;28;20991;-64
2023/04/21 12:35:55;;;;;;;7.10;2.42;;;22.10;99.90;;;;;;5015451;28;20041;-63
2023/04/21 12:38:21;;;;;;;8.52;2.85;;;22.50;99.90;;;;;;5012908;28;20044;-63